メインページ
METAR-TAF:

METAR-TAF

空港 :

バミューダ諸島, バミューダ諸島

バミューダ国際空港

緯度: 32-22N, 経度: 064-41W, 海抜: 6m

現時点の気象観測

当レポートは1時間10分前の20:55(UTC)に作成
の風 12kt
気温 19°C
湿度 56%
気圧 1032 hPa
視程10km以上
高度4000ftの雲は散在している

METAR: TXKF 192055Z 08012KT 9999 SCT040 19/10 Q1032

時間: 18:05 (22:05 UTC)

予報

当レポートは4時間30分前の17:35(UTC)に作成
予報は19日の 18時(UTC)から 20日の 18時(UTC)まで有効
の風 12kt
視程10km以上
高度3500ftの千切れ雲あり

TAF: TXKF 191735Z 1918/2018 08012KT 9999 BKN035

4,000以上の空港の気象観測と天気予報(METAR報とTAF報)

利用可能な観測所は地図上に黄色い丸と赤い丸で示す。

丸の上にカーソルを重ねると観測所名を参照できる。

次にクリックすると気象観測と天気予報を参照できる。

マップの切り替え:黒色「×」印の緑ボタンをクリックして拡大、「-」印の緑ボタンをクリックして縮小、緑色の三角印をクリックして隣りの地図に切り替え


METAR-TAF: